Flugplatz Schwenningen am Neckar (EDTS)

Hier findest Du alle Informationen zum Flugplatz Schwenningen am Neckar (EDTS).

Informationen für Piloten zum Flugplatz Schwenningen am Neckar

Hier findest Du alle relevanten Informationen, die Du als Pilot benötigst, um Schwenningen am Neckar anzufliegen.

Flugplatz: Schwenningen am Neckar ICAO-Code: EDTS
Frequenz Turm: 122,850 Mhz GAFOR Gebiet: 62
Frequenz Ground: 122,850 Mhz Mogas: nein
Platzrunde: NW 3500 ft Landegebühr: -
Platzhöhe: - Sunrise: 06:40 Uhr UTC
Pisten: 05/23 - 631 m x 20 m, ASPH Sunset: 15:43 Uhr UTC

Mitglieder, die in Schwenningen am Neckar fliegen

Flugwetter am Flugplatz Schwenningen am Neckar

Die METAR Information stammen aus EDTD (10.85 km entfernt).

METAR Code:
2019/09/29 07:00
EDTD 290700Z 00000KT CAVOK 24/18 Q1020

Flugschulen am Flugplatz Schwenningen am Neckar

Am Flugplatz Schwenningen am Neckar gibt es leider keine Flugschule.

Benachbarte Flugplätze und Flugschulen

Es gibt 16 weitere Flugplätze in einem Umkreis von 50 km um den Flugplatz Schwenningen am Neckar.

Jetzt anmelden

Passwort vergessen

Anzeige: Skymap
Umfrage Archiv

Lasst Ihr Euch bei Überlandflügen von FIS begleiten?

Ja, immer!
50 %
Ja, unregelmäßig!
28 %
Ja, aber nur selten!
20 %
Nein, nie!
2 %
Stimmen: 50 | Diskussion
Anzeige: Roland Aircraft
Statistik Alle Mitglieder

Aktuell sind 38 Besucher online, davon 2 Mitglieder und 36 Gäste.


Mitglieder online:
mikemike  Freifaller 

Anzeige: VFR Sprechfunk Simulator


Anzeige: Pocket FMS